Nome, Texas
Current Conditions -  °F | °C
As of 6:15 PM on Tuesday 25 Nov 2014 (Local Time) from KBMT Reporting Station
Clear Clear  
Wind Chill: 48°   Ceiling: Unl
Heat Index: 48°   Visibility: 10mi
Dew Point: 40°   Wind: 0mph
Humidity: 73%   Direction: NA
Pressure: 30.24"   Gusts: NA
Location:  30.04°N, 94.42°W
Report Text: KBMT 260015Z AUTO 00000KT 10SM CLR 09/04 A3024 RMK AO2 T00890043
Loading
Personal Weather Stations






























Interactive Weather Map New forecast layout! Learn more

10-Day Weather Forecast

Advertisements
Track Severe Weather on mobile